Crown Of Scandinavia — OXRA6 — position and weather

sailwx.info

Track history (hours):
 
Tides and Currents Weather Stations Pressure Air Temp Water Temp Dewpoint Dewpoint Depression Visibility Wind Speed Wind Dir Waves Ship Positions

Crown Of Scandinavia

Last reported at 2017-Apr-30 14:28 UTC. Time now 2017-Apr-30 14:52 UTC.
Position N 55°42' E 012°36'.

Length 171 m; draft 6.3 m.

Type: Ship. MMSI: 219592000.

Date/timePositionNaut miles runAvg speedWind from/ knotsBaromVisibWave heightAir tempDewpointWater temp
2017-Apr-30 14:28N 55°42' E 012°36'0 0.0
2017-Apr-30 13:28N 55°42' E 012°36'0 0.0
2017-Apr-30 12:58N 55°42' E 012°36'0 0.0
2017-Apr-30 12:28N 55°42' E 012°36'0 0.0
2017-Apr-30 11:58N 55°42' E 012°36'0 0.0
2017-Apr-30 11:28N 55°42' E 012°36'0 0.0
2017-Apr-30 10:58N 55°42' E 012°36'0 0.0
2017-Apr-30 10:28N 55°42' E 012°36'0 0.0
2017-Apr-30 09:58N 55°42' E 012°36'0 0.0
2017-Apr-30 09:28N 55°42' E 012°36'0 0.0
2017-Apr-30 08:58N 55°42' E 012°36'0 0.0
2017-Apr-30 08:28N 55°42' E 012°36'0 0.0
2017-Apr-30 07:59N 55°42' E 012°36'0 0.9
2017-Apr-30 07:31N 55°42' E 012°36'612.2
2017-Apr-30 07:01N 55°48' E 012°42'815.5
2017-Apr-30 06:31N 55°55' E 012°39'815.7
2017-Apr-30 06:00N 56°03' E 012°39'714.6
2017-Apr-30 05:31N 56°08' E 012°29'714.3
2017-Apr-30 05:01N 56°15' E 012°25'915.4
2017-Apr-30 04:25N 56°23' E 012°20'5416.6
2017-Apr-30 01:12N 57°14' E 011°50'316.3
2017-Apr-30 01:01N 57°17' E 011°47'816.0
2017-Apr-30 00:30N 57°24' E 011°41'815.8
2017-Apr-30 00:00N 57°31' E 011°32'816.3
2017-Apr-29 23:30N 57°37' E 011°23'816.2
2017-Apr-29 22:59N 57°44' E 011°14'816.1
2017-Apr-29 22:30N 57°50' E 011°06'816.8
2017-Apr-29 22:00N 57°58' E 011°00'816.1
2017-Apr-29 21:30N 58°06' E 010°55'916.4
2017-Apr-29 20:58N 58°14' E 010°49'816.6
2017-Apr-29 20:28N 58°22' E 010°44'716.4
2017-Apr-29 20:01N 58°29' E 010°39'816.1
2017-Apr-29 19:31N 58°37' E 010°37'816.0
2017-Apr-29 19:01N 58°45' E 010°36'816.8
2017-Apr-29 18:31N 58°53' E 010°37'917.3
2017-Apr-29 18:01N 59°02' E 010°38'816.8
2017-Apr-29 17:31N 59°10' E 010°38'917.1
2017-Apr-29 17:01N 59°19' E 010°36'917.3
2017-Apr-29 16:31N 59°27' E 010°34'917.1
2017-Apr-29 16:01N 59°36' E 010°38'714.9
2017-Apr-29 15:30N 59°43' E 010°35'815.8
2017-Apr-29 15:00N 59°51' E 010°37'5 5.3
2017-Apr-29 13:59N 59°54' E 010°45'0 0.0
2017-Apr-29 13:29N 59°54' E 010°45'0 0.0
2017-Apr-29 12:59N 59°54' E 010°45'0 0.0
2017-Apr-29 12:29N 59°54' E 010°45'0 0.0
2017-Apr-29 11:59N 59°54' E 010°45'0 0.0
2017-Apr-29 11:29N 59°54' E 010°45'0 0.0
2017-Apr-29 10:59N 59°54' E 010°45'0 0.0
2017-Apr-29 10:29N 59°54' E 010°45'0 0.0
2017-Apr-29 09:59N 59°54' E 010°45'0 0.0
2017-Apr-29 09:29N 59°54' E 010°45'0 0.0
2017-Apr-29 08:59N 59°54' E 010°45'0 0.0
2017-Apr-29 08:29N 59°54' E 010°45'0 0.0
2017-Apr-29 07:59N 59°54' E 010°45'2 4.1
2017-Apr-29 07:30N 59°53' E 010°41'713.8
2017-Apr-29 07:00N 59°47' E 010°35'714.7
2017-Apr-29 06:30N 59°40' E 010°37'612.9
2017-Apr-29 06:00N 59°34' E 010°38'714.2
2017-Apr-29 05:30N 59°27' E 010°34'815.2
2017-Apr-29 05:00N 59°19' E 010°36'815.2
2017-Apr-29 04:30N 59°12' E 010°39'815.3
2017-Apr-29 04:01N 59°04' E 010°41'815.3
2017-Apr-29 03:30N 58°57' E 010°43'815.5
2017-Apr-29 03:00N 58°49' E 010°45'815.9
2017-Apr-29 02:31N 58°41' E 010°47'816.2
2017-Apr-29 02:00N 58°33' E 010°50'816.4
2017-Apr-29 01:31N 58°25' E 010°55'916.8
2017-Apr-29 01:00N 58°17' E 010°59'816.9
2017-Apr-29 00:30N 58°09' E 011°04'816.9
2017-Apr-29 00:00N 58°01' E 011°09'816.6
2017-Apr-28 23:30N 57°53' E 011°14'816.2
2017-Apr-28 23:00N 57°46' E 011°19'816.5
2017-Apr-28 22:31N 57°38' E 011°24'816.2
2017-Apr-28 22:00N 57°30' E 011°30'816.4
2017-Apr-28 21:30N 57°22' E 011°33'816.2
2017-Apr-28 21:00N 57°14' E 011°36'816.3
2017-Apr-28 20:29N 57°07' E 011°41'5815.7
2017-Apr-28 16:47N 56°14' E 012°26'517.6
2017-Apr-28 16:31N 56°09' E 012°30'917.8
2017-Apr-28 16:01N 56°02' E 012°40'817.0
2017-Apr-28 15:30N 55°54' E 012°44'816.1
2017-Apr-28 15:00N 55°46' E 012°42'5 5.2
2017-Apr-28 13:58N 55°42' E 012°36'0 0.0
2017-Apr-28 13:28N 55°42' E 012°36'0 0.0
2017-Apr-28 12:58N 55°42' E 012°36'0 0.0
2017-Apr-28 12:28N 55°42' E 012°36'0 0.0
2017-Apr-28 11:58N 55°42' E 012°36'0 0.0
2017-Apr-28 11:28N 55°42' E 012°36'0 0.0
2017-Apr-28 10:58N 55°42' E 012°36'0 0.0
2017-Apr-28 10:28N 55°42' E 012°36'0 0.0
2017-Apr-28 09:58N 55°42' E 012°36'0 0.0
2017-Apr-28 09:28N 55°42' E 012°36'0 0.0
2017-Apr-28 08:58N 55°42' E 012°36'0 0.0
2017-Apr-28 08:28N 55°42' E 012°36'0 0.0
2017-Apr-28 07:58N 55°42' E 012°36'1 2.5
2017-Apr-28 07:31N 55°43' E 012°38'714.5
2017-Apr-28 07:01N 55°50' E 012°42'815.1
2017-Apr-28 06:31N 55°57' E 012°40'714.8
2017-Apr-28 06:01N 56°04' E 012°37'714.9
2017-Apr-28 05:31N 56°09' E 012°27'915.7
2017-Apr-28 04:58N 56°16' E 012°18'5416.7
2017-Apr-28 01:43N 57°06' E 011°38'316.6
2017-Apr-28 01:30N 57°09' E 011°35'816.5
2017-Apr-28 01:00N 57°17' E 011°29'816.6
2017-Apr-28 00:31N 57°25' E 011°25'916.4
2017-Apr-27 23:59N 57°33' E 011°20'816.6
2017-Apr-27 23:30N 57°40' E 011°14'916.7
2017-Apr-27 23:00N 57°48' E 011°07'816.4
2017-Apr-27 22:30N 57°55' E 011°02'816.1
2017-Apr-27 22:00N 58°03' E 010°57'816.1
2017-Apr-27 21:28N 58°11' E 010°51'816.0
2017-Apr-27 21:00N 58°18' E 010°47'816.2
2017-Apr-27 20:29N 58°26' E 010°41'816.1
2017-Apr-27 20:01N 58°33' E 010°38'815.8
2017-Apr-27 19:31N 58°41' E 010°36'815.6
2017-Apr-27 19:00N 58°49' E 010°35'816.3
2017-Apr-27 18:31N 58°57' E 010°36'917.2
2017-Apr-27 18:01N 59°06' E 010°38'917.1
2017-Apr-27 17:31N 59°14' E 010°37'917.6
2017-Apr-27 17:01N 59°23' E 010°34'917.5
2017-Apr-27 16:31N 59°32' E 010°35'816.5
2017-Apr-27 16:01N 59°40' E 010°37'815.4
2017-Apr-27 15:31N 59°47' E 010°34'815.4
2017-Apr-27 15:00N 59°54' E 010°42'1 2.6
2017-Apr-27 14:30N 59°54' E 010°45'0 0.0
2017-Apr-27 14:00N 59°54' E 010°45'0 0.0
2017-Apr-27 13:30N 59°54' E 010°45'0 0.0
2017-Apr-27 13:00N 59°54' E 010°45'0 0.0
2017-Apr-27 12:30N 59°54' E 010°45'0 0.0
2017-Apr-27 12:00N 59°54' E 010°45'0 0.0
2017-Apr-27 11:30N 59°54' E 010°45'0 0.0
2017-Apr-27 11:00N 59°54' E 010°45'0 0.0
2017-Apr-27 10:30N 59°54' E 010°45'0 0.0
2017-Apr-27 10:00N 59°54' E 010°45'0 0.0
2017-Apr-27 09:30N 59°54' E 010°45'0 0.0
2017-Apr-27 09:00N 59°54' E 010°45'0 0.0
2017-Apr-27 08:30N 59°54' E 010°45'0 0.0
2017-Apr-27 08:00N 59°54' E 010°45'0 0.5
2017-Apr-27 07:30N 59°54' E 010°44'714.5
2017-Apr-27 07:00N 59°49' E 010°35'815.4
2017-Apr-27 06:30N 59°41' E 010°36'714.6
2017-Apr-27 06:00N 59°34' E 010°38'815.3
2017-Apr-27 05:30N 59°26' E 010°34'714.9
2017-Apr-27 05:00N 59°19' E 010°36'815.1
2017-Apr-27 04:30N 59°12' E 010°39'714.9
2017-Apr-27 04:01N 59°04' E 010°41'815.4
2017-Apr-27 03:30N 58°57' E 010°43'816.0
2017-Apr-27 03:00N 58°49' E 010°44'816.2
2017-Apr-27 02:30N 58°41' E 010°47'816.4
2017-Apr-27 02:00N 58°33' E 010°52'816.2
2017-Apr-27 01:30N 58°25' E 010°56'816.3
2017-Apr-27 01:01N 58°17' E 010°58'816.7
2017-Apr-27 00:30N 58°09' E 011°02'917.3
2017-Apr-26 23:58N 58°00' E 011°08'817.1
2017-Apr-26 23:30N 57°52' E 011°12'817.2
2017-Apr-26 23:01N 57°45' E 011°17'917.0
2017-Apr-26 22:30N 57°36' E 011°22'817.0
2017-Apr-26 22:01N 57°28' E 011°27'816.9
2017-Apr-26 21:31N 57°20' E 011°33'816.5
2017-Apr-26 21:00N 57°13' E 011°38'916.8
2017-Apr-26 20:29N 57°04' E 011°43'5616.3
2017-Apr-26 17:04N 56°14' E 012°26'116.2
2017-Apr-26 17:00N 56°13' E 012°26'816.3
2017-Apr-26 16:30N 56°06' E 012°35'816.5
2017-Apr-26 16:00N 55°59' E 012°42'815.9
2017-Apr-26 15:30N 55°51' E 012°45'815.2
2017-Apr-26 15:00N 55°44' E 012°40'3 5.5
2017-Apr-26 14:29N 55°42' E 012°36'0 0.0
2017-Apr-26 13:29N 55°42' E 012°36'0 0.0
2017-Apr-26 12:59N 55°42' E 012°36'0 0.0
2017-Apr-26 12:29N 55°42' E 012°36'0 0.0
2017-Apr-26 11:59N 55°42' E 012°36'0 0.0
2017-Apr-26 11:29N 55°42' E 012°36'0 0.0
2017-Apr-26 10:59N 55°42' E 012°36'0 0.0
2017-Apr-26 10:29N 55°42' E 012°36'0 0.0
2017-Apr-26 09:59N 55°42' E 012°36'0 0.0
2017-Apr-26 09:29N 55°42' E 012°36'0 0.0
2017-Apr-26 08:59N 55°42' E 012°36'0 0.0
2017-Apr-26 08:29N 55°42' E 012°36'0 0.0
2017-Apr-26 07:59N 55°42' E 012°36'0 0.7
2017-Apr-26 07:31N 55°42' E 012°36'611.5
2017-Apr-26 07:01N 55°47' E 012°42'714.7
2017-Apr-26 06:31N 55°54' E 012°39'815.3
2017-Apr-26 06:01N 56°02' E 012°39'815.5
2017-Apr-26 05:30N 56°08' E 012°30'815.6
2017-Apr-26 05:01N 56°15' E 012°25'6316.2
2017-Apr-26 01:09N 57°15' E 011°51'216.2
2017-Apr-26 01:00N 57°17' E 011°49'816.2
2017-Apr-26 00:30N 57°24' E 011°41'816.4
2017-Apr-26 00:00N 57°30' E 011°32'816.6
2017-Apr-25 23:30N 57°36' E 011°20'816.3
2017-Apr-25 23:01N 57°42' E 011°11'917.5
2017-Apr-25 22:28N 57°51' E 011°06'818.0
2017-Apr-25 22:00N 57°59' E 011°01'917.9
2017-Apr-25 21:30N 58°08' E 010°55'917.8
2017-Apr-25 21:00N 58°16' E 010°48'917.5
2017-Apr-25 20:28N 58°25' E 010°42'817.3
2017-Apr-25 20:01N 58°32' E 010°37'917.3
2017-Apr-25 19:30N 58°41' E 010°36'917.7
2017-Apr-25 19:01N 58°50' E 010°35'918.5
2017-Apr-25 18:31N 58°59' E 010°37'1019.2
2017-Apr-25 18:01N 59°08' E 010°38'1019.7
2017-Apr-25 17:31N 59°18' E 010°36'918.8
2017-Apr-25 17:01N 59°27' E 010°33'917.5
2017-Apr-25 16:31N 59°36' E 010°38'713.8
2017-Apr-25 16:00N 59°43' E 010°35'713.6
2017-Apr-25 15:30N 59°49' E 010°34'713.0
2017-Apr-25 15:00N 59°54' E 010°43'1 1.5
2017-Apr-25 14:30N 59°54' E 010°45'0 0.0
2017-Apr-25 13:29N 59°54' E 010°45'0 0.0
2017-Apr-25 12:59N 59°54' E 010°45'0 0.0
2017-Apr-25 12:29N 59°54' E 010°45'0 0.0
2017-Apr-25 11:59N 59°54' E 010°45'0 0.0
2017-Apr-25 11:29N 59°54' E 010°45'0 0.0
2017-Apr-25 10:59N 59°54' E 010°45'0 0.0
2017-Apr-25 10:29N 59°54' E 010°45'0 0.0
2017-Apr-25 09:59N 59°54' E 010°45'0 0.0
2017-Apr-25 09:29N 59°54' E 010°45'0 0.0
2017-Apr-25 08:59N 59°54' E 010°45'0 0.0
2017-Apr-25 08:29N 59°54' E 010°45'1 2.5
2017-Apr-25 08:00N 59°54' E 010°42'715.1
2017-Apr-25 07:31N 59°48' E 010°35'714.5
2017-Apr-25 07:00N 59°40' E 010°37'714.9
2017-Apr-25 06:30N 59°33' E 010°38'816.2
2017-Apr-25 06:00N 59°25' E 010°34'816.1
2017-Apr-25 05:30N 59°17' E 010°37'816.1
2017-Apr-25 05:00N 59°09' E 010°39'816.4
2017-Apr-25 04:30N 59°01' E 010°41'816.7
2017-Apr-25 04:00N 58°53' E 010°43'816.8
2017-Apr-25 03:31N 58°45' E 010°45'816.9
2017-Apr-25 03:01N 58°36' E 010°50'816.9
2017-Apr-25 02:30N 58°29' E 010°56'816.5
2017-Apr-25 02:00N 58°21' E 010°60'916.9
2017-Apr-25 01:28N 58°12' E 011°04'816.9
2017-Apr-25 01:01N 58°04' E 011°04'917.1
2017-Apr-25 00:30N 57°55' E 011°03'816.5
2017-Apr-25 00:00N 57°47' E 011°02'714.7
2017-Apr-24 23:30N 57°40' E 011°06'815.3
2017-Apr-24 23:00N 57°35' E 011°15'815.7
2017-Apr-24 22:31N 57°29' E 011°26'815.7
2017-Apr-24 22:00N 57°22' E 011°31'916.5
2017-Apr-24 21:29N 57°14' E 011°35'1016.0
2017-Apr-24 20:53N 57°05' E 011°42'5515.4
2017-Apr-24 17:20N 56°15' E 012°21'514.6
2017-Apr-24 17:00N 56°11' E 012°27'815.6
2017-Apr-24 16:30N 56°05' E 012°36'816.0
2017-Apr-24 16:00N 55°58' E 012°42'816.0
2017-Apr-24 15:30N 55°50' E 012°44'714.0
2017-Apr-24 15:01N 55°44' E 012°39'2 4.7
2017-Apr-24 14:29N 55°42' E 012°36'0 0.0
2017-Apr-24 13:29N 55°42' E 012°36'0 0.0
2017-Apr-24 12:59N 55°42' E 012°36'0 0.0
2017-Apr-24 12:29N 55°42' E 012°36'0 0.0
2017-Apr-24 11:59N 55°42' E 012°36'0 0.0
2017-Apr-24 11:29N 55°42' E 012°36'0 0.0
2017-Apr-24 10:59N 55°42' E 012°36'0 0.0
2017-Apr-24 10:29N 55°42' E 012°36'0 0.0
2017-Apr-24 09:59N 55°42' E 012°36'0 0.0
2017-Apr-24 09:29N 55°42' E 012°36'0 0.0
2017-Apr-24 08:59N 55°42' E 012°36'0 0.0
2017-Apr-24 08:29N 55°42' E 012°36'0 0.0
2017-Apr-24 07:59N 55°42' E 012°36'0 0.8
2017-Apr-24 07:31N 55°42' E 012°36'713.9
2017-Apr-24 07:00N 55°49' E 012°42'815.1
2017-Apr-24 06:30N 55°56' E 012°39'815.2
2017-Apr-24 06:00N 56°03' E 012°38'714.8
2017-Apr-24 05:30N 56°09' E 012°29'815.0
2017-Apr-24 05:00N 56°16' E 012°25'5915.3
2017-Apr-24 01:07N 57°13' E 011°53'216.4
2017-Apr-24 00:58N 57°15' E 011°51'816.2
2017-Apr-24 00:30N 57°21' E 011°43'816.4
2017-Apr-24 00:00N 57°29' E 011°36'816.7
2017-Apr-23 23:30N 57°36' E 011°30'816.4
2017-Apr-23 23:00N 57°44' E 011°26'916.5
2017-Apr-23 22:26N 57°53' E 011°19'716.4
2017-Apr-23 21:59N 57°60' E 011°14'815.9
2017-Apr-23 21:30N 58°07' E 011°09'815.8
2017-Apr-23 21:00N 58°14' E 011°04'816.1
2017-Apr-23 20:30N 58°22' E 010°59'816.4
2017-Apr-23 20:00N 58°30' E 010°54'816.3
2017-Apr-23 19:30N 58°38' E 010°50'816.4
2017-Apr-23 19:00N 58°46' E 010°48'816.7
2017-Apr-23 18:30N 58°54' E 010°44'816.9
2017-Apr-23 18:00N 59°02' E 010°41'816.7
2017-Apr-23 17:30N 59°10' E 010°38'816.6
2017-Apr-23 17:00N 59°19' E 010°35'816.6
2017-Apr-23 16:30N 59°27' E 010°33'816.0
2017-Apr-23 16:00N 59°34' E 010°38'714.0
2017-Apr-23 15:30N 59°41' E 010°36'815.8
2017-Apr-23 15:00N 59°49' E 010°34'7 7.1
2017-Apr-23 13:59N 59°54' E 010°45'0 0.0
2017-Apr-23 13:29N 59°54' E 010°45'0 0.0
2017-Apr-23 12:59N 59°54' E 010°45'0 0.0
2017-Apr-23 12:29N 59°54' E 010°45'0 0.0
2017-Apr-23 11:59N 59°54' E 010°45'0 0.0
2017-Apr-23 11:29N 59°54' E 010°45'0 0.0
2017-Apr-23 10:59N 59°54' E 010°45'0 0.0
2017-Apr-23 10:29N 59°54' E 010°45'0 0.0
2017-Apr-23 09:59N 59°54' E 010°45'0 0.0
2017-Apr-23 09:29N 59°54' E 010°45'0 0.0
2017-Apr-23 08:59N 59°54' E 010°45'0 0.0
2017-Apr-23 08:29N 59°54' E 010°45'0 0.0
2017-Apr-23 07:59N 59°54' E 010°45'0 0.3
2017-Apr-23 07:30N 59°54' E 010°45'611.7
2017-Apr-23 07:00N 59°50' E 010°36'714.7
2017-Apr-23 06:30N 59°43' E 010°35'713.9
2017-Apr-23 06:01N 59°36' E 010°38'816.2
2017-Apr-23 05:31N 59°28' E 010°35'815.7
2017-Apr-23 05:01N 59°20' E 010°36'815.5
2017-Apr-23 04:31N 59°13' E 010°38'815.7
2017-Apr-23 04:01N 59°05' E 010°39'816.2
2017-Apr-23 03:31N 58°57' E 010°38'816.5
2017-Apr-23 03:01N 58°49' E 010°39'816.9
2017-Apr-23 02:31N 58°40' E 010°40'917.5
2017-Apr-23 02:01N 58°31' E 010°41'917.7
2017-Apr-23 01:30N 58°23' E 010°43'917.7
2017-Apr-23 01:00N 58°14' E 010°49'917.4
2017-Apr-23 00:31N 58°06' E 010°55'917.4
2017-Apr-23 00:00N 57°58' E 011°00'816.9
2017-Apr-22 23:30N 57°50' E 011°06'816.8
2017-Apr-22 23:00N 57°42' E 011°11'816.6
2017-Apr-22 22:30N 57°35' E 011°19'816.8
2017-Apr-22 22:00N 57°28' E 011°27'916.9
2017-Apr-22 21:30N 57°20' E 011°34'817.1
2017-Apr-22 21:01N 57°12' E 011°38'1017.5
2017-Apr-22 20:25N 57°02' E 011°44'1117.8
2017-Apr-22 19:50N 56°52' E 011°49'3916.5
2017-Apr-22 17:27N 56°16' E 012°18'715.8
2017-Apr-22 17:01N 56°11' E 012°26'815.6
2017-Apr-22 16:31N 56°05' E 012°36'713.8
2017-Apr-22 16:01N 55°59' E 012°42'714.7
2017-Apr-22 15:31N 55°52' E 012°45'713.9
2017-Apr-22 15:00N 55°45' E 012°41'4 8.4
2017-Apr-22 14:30N 55°42' E 012°36'0 0.0
2017-Apr-22 13:30N 55°42' E 012°36'0 0.0
2017-Apr-22 13:00N 55°42' E 012°36'0 0.0
2017-Apr-22 12:30N 55°42' E 012°36'0 0.0
2017-Apr-22 12:00N 55°42' E 012°36'0 0.0
2017-Apr-22 11:30N 55°42' E 012°36'0 0.0
2017-Apr-22 11:00N 55°42' E 012°36'0 0.0
2017-Apr-22 10:30N 55°42' E 012°36'0 0.0
2017-Apr-22 10:00N 55°42' E 012°36'0 0.0
2017-Apr-22 09:30N 55°42' E 012°36'0 0.0
2017-Apr-22 09:00N 55°42' E 012°36'0 0.0
2017-Apr-22 08:30N 55°42' E 012°36'0 0.0
2017-Apr-22 08:00N 55°42' E 012°36'0 0.7
2017-Apr-22 07:31N 55°42' E 012°36'611.5
2017-Apr-22 07:00N 55°47' E 012°42'815.8
2017-Apr-22 06:30N 55°55' E 012°39'816.8
2017-Apr-22 06:00N 56°03' E 012°38'918.3
2017-Apr-22 05:30N 56°10' E 012°27'6717.2
2017-Apr-22 01:37N 57°14' E 011°52'217.6
2017-Apr-22 01:30N 57°16' E 011°50'917.6
2017-Apr-22 01:00N 57°23' E 011°41'917.4
2017-Apr-22 00:31N 57°29' E 011°30'917.1
2017-Apr-22 00:00N 57°35' E 011°19'917.4
2017-Apr-21 23:30N 57°44' E 011°13'817.3
2017-Apr-21 23:01N 57°51' E 011°07'816.7
2017-Apr-21 22:30N 57°59' E 011°01'816.2
2017-Apr-21 22:00N 58°07' E 010°56'816.3
2017-Apr-21 21:30N 58°15' E 010°51'816.1
2017-Apr-21 21:00N 58°22' E 010°45'816.3
2017-Apr-21 20:30N 58°30' E 010°40'815.9
2017-Apr-21 20:00N 58°37' E 010°36'816.1
2017-Apr-21 19:30N 58°45' E 010°35'816.7
2017-Apr-21 19:00N 58°54' E 010°35'817.0
2017-Apr-21 18:30N 59°02' E 010°37'815.1
2017-Apr-21 18:00N 59°10' E 010°38'714.9
2017-Apr-21 17:30N 59°17' E 010°36'715.0
2017-Apr-21 17:00N 59°25' E 010°34'815.3
2017-Apr-21 16:30N 59°32' E 010°36'815.2
2017-Apr-21 16:00N 59°40' E 010°37'714.4
2017-Apr-21 15:31N 59°47' E 010°34'713.6
2017-Apr-21 15:00N 59°53' E 010°39'3 6.0
2017-Apr-21 14:30N 59°54' E 010°45'0 0.0
2017-Apr-21 13:30N 59°54' E 010°45'0 0.0
2017-Apr-21 13:00N 59°54' E 010°45'0 0.0
2017-Apr-21 12:30N 59°54' E 010°45'0 0.0
2017-Apr-21 12:00N 59°54' E 010°45'0 0.0
2017-Apr-21 11:30N 59°54' E 010°45'0 0.0
2017-Apr-21 11:00N 59°54' E 010°45'0 0.0
2017-Apr-21 10:30N 59°54' E 010°45'0 0.0
2017-Apr-21 10:00N 59°54' E 010°45'0 0.0
2017-Apr-21 09:30N 59°54' E 010°45'0 0.0
2017-Apr-21 09:00N 59°54' E 010°45'0 0.0
2017-Apr-21 08:30N 59°54' E 010°45'0 0.0
2017-Apr-21 07:57N 59°54' E 010°45'0 0.4
2017-Apr-21 07:30N 59°54' E 010°45'511.0
2017-Apr-21 07:00N 59°50' E 010°36'714.1
2017-Apr-21 06:30N 59°43' E 010°35'612.9
2017-Apr-21 06:00N 59°37' E 010°38'815.3
2017-Apr-21 05:30N 59°30' E 010°35'816.0
2017-Apr-21 05:00N 59°22' E 010°35'816.6
2017-Apr-21 04:31N 59°14' E 010°38'816.3
2017-Apr-21 04:01N 59°05' E 010°38'816.1
2017-Apr-21 03:30N 58°57' E 010°36'816.6
2017-Apr-21 03:00N 58°49' E 010°35'816.5
2017-Apr-21 02:30N 58°41' E 010°36'816.5
2017-Apr-21 02:00N 58°32' E 010°37'817.1
2017-Apr-21 01:30N 58°24' E 010°42'816.9
2017-Apr-21 01:00N 58°16' E 010°47'816.7
2017-Apr-21 00:30N 58°08' E 010°51'816.1
2017-Apr-20 23:59N 58°01' E 010°59'815.9
2017-Apr-20 23:30N 57°54' E 011°04'815.5
2017-Apr-20 23:00N 57°47' E 011°09'816.0
2017-Apr-20 22:30N 57°39' E 011°14'816.0
2017-Apr-20 22:01N 57°32' E 011°22'816.4
2017-Apr-20 21:30N 57°25' E 011°29'817.0
2017-Apr-20 21:00N 57°17' E 011°35'1017.5
2017-Apr-20 20:27N 57°08' E 011°40'817.0
2017-Apr-20 20:00N 57°01' E 011°46'2716.4
2017-Apr-20 18:22N 56°37' E 012°09'2516.8
2017-Apr-20 16:51N 56°14' E 012°26'617.4
2017-Apr-20 16:30N 56°08' E 012°31'816.8
2017-Apr-20 16:01N 56°02' E 012°40'816.4
2017-Apr-20 15:30N 55°54' E 012°44'714.9
2017-Apr-20 15:00N 55°46' E 012°42'611.1
2017-Apr-20 14:31N 55°42' E 012°36'  
Track history (hours):
 
Tides and Currents Weather Stations Pressure Air Temp Water Temp Dewpoint Dewpoint Depression Visibility Wind Speed Wind Dir Waves Ship Positions

Crown Of Scandinavia

Last reported at 2017-Apr-30 14:28 UTC. Time now 2017-Apr-30 14:52 UTC.
Position N 55°42' E 012°36'.

Length 171 m; draft 6.3 m.

Type: Ship. MMSI: 219592000.

Date/timePositionNaut miles runAvg speedWind from/ knotsBaromVisibWave heightAir tempDewpointWater temp
2017-Apr-30 14:28N 55°42' E 012°36'0 0.0
2017-Apr-30 13:28N 55°42' E 012°36'0 0.0
2017-Apr-30 12:58N 55°42' E 012°36'0 0.0
2017-Apr-30 12:28N 55°42' E 012°36'0 0.0
2017-Apr-30 11:58N 55°42' E 012°36'0 0.0
2017-Apr-30 11:28N 55°42' E 012°36'0 0.0
2017-Apr-30 10:58N 55°42' E 012°36'0 0.0
2017-Apr-30 10:28N 55°42' E 012°36'0 0.0
2017-Apr-30 09:58N 55°42' E 012°36'0 0.0
2017-Apr-30 09:28N 55°42' E 012°36'0 0.0
2017-Apr-30 08:58N 55°42' E 012°36'0 0.0
2017-Apr-30 08:28N 55°42' E 012°36'0 0.0
2017-Apr-30 07:59N 55°42' E 012°36'0 0.9
2017-Apr-30 07:31N 55°42' E 012°36'612.2
2017-Apr-30 07:01N 55°48' E 012°42'815.5
2017-Apr-30 06:31N 55°55' E 012°39'815.7
2017-Apr-30 06:00N 56°03' E 012°39'714.6
2017-Apr-30 05:31N 56°08' E 012°29'714.3
2017-Apr-30 05:01N 56°15' E 012°25'915.4
2017-Apr-30 04:25N 56°23' E 012°20'5416.6
2017-Apr-30 01:12N 57°14' E 011°50'316.3
2017-Apr-30 01:01N 57°17' E 011°47'816.0
2017-Apr-30 00:30N 57°24' E 011°41'815.8
2017-Apr-30 00:00N 57°31' E 011°32'816.3
2017-Apr-29 23:30N 57°37' E 011°23'816.2
2017-Apr-29 22:59N 57°44' E 011°14'816.1
2017-Apr-29 22:30N 57°50' E 011°06'816.8
2017-Apr-29 22:00N 57°58' E 011°00'816.1
2017-Apr-29 21:30N 58°06' E 010°55'916.4
2017-Apr-29 20:58N 58°14' E 010°49'816.6
2017-Apr-29 20:28N 58°22' E 010°44'716.4
2017-Apr-29 20:01N 58°29' E 010°39'816.1
2017-Apr-29 19:31N 58°37' E 010°37'816.0
2017-Apr-29 19:01N 58°45' E 010°36'816.8
2017-Apr-29 18:31N 58°53' E 010°37'917.3
2017-Apr-29 18:01N 59°02' E 010°38'816.8
2017-Apr-29 17:31N 59°10' E 010°38'917.1
2017-Apr-29 17:01N 59°19' E 010°36'917.3
2017-Apr-29 16:31N 59°27' E 010°34'917.1
2017-Apr-29 16:01N 59°36' E 010°38'714.9
2017-Apr-29 15:30N 59°43' E 010°35'815.8
2017-Apr-29 15:00N 59°51' E 010°37'5 5.3
2017-Apr-29 13:59N 59°54' E 010°45'0 0.0
2017-Apr-29 13:29N 59°54' E 010°45'0 0.0
2017-Apr-29 12:59N 59°54' E 010°45'0 0.0
2017-Apr-29 12:29N 59°54' E 010°45'0 0.0
2017-Apr-29 11:59N 59°54' E 010°45'0 0.0
2017-Apr-29 11:29N 59°54' E 010°45'0 0.0
2017-Apr-29 10:59N 59°54' E 010°45'0 0.0
2017-Apr-29 10:29N 59°54' E 010°45'0 0.0
2017-Apr-29 09:59N 59°54' E 010°45'0 0.0
2017-Apr-29 09:29N 59°54' E 010°45'0 0.0
2017-Apr-29 08:59N 59°54' E 010°45'0 0.0
2017-Apr-29 08:29N 59°54' E 010°45'0 0.0
2017-Apr-29 07:59N 59°54' E 010°45'2 4.1
2017-Apr-29 07:30N 59°53' E 010°41'713.8
2017-Apr-29 07:00N 59°47' E 010°35'714.7
2017-Apr-29 06:30N 59°40' E 010°37'612.9
2017-Apr-29 06:00N 59°34' E 010°38'714.2
2017-Apr-29 05:30N 59°27' E 010°34'815.2
2017-Apr-29 05:00N 59°19' E 010°36'815.2
2017-Apr-29 04:30N 59°12' E 010°39'815.3
2017-Apr-29 04:01N 59°04' E 010°41'815.3
2017-Apr-29 03:30N 58°57' E 010°43'815.5
2017-Apr-29 03:00N 58°49' E 010°45'815.9
2017-Apr-29 02:31N 58°41' E 010°47'816.2
2017-Apr-29 02:00N 58°33' E 010°50'816.4
2017-Apr-29 01:31N 58°25' E 010°55'916.8
2017-Apr-29 01:00N 58°17' E 010°59'816.9
2017-Apr-29 00:30N 58°09' E 011°04'816.9
2017-Apr-29 00:00N 58°01' E 011°09'816.6
2017-Apr-28 23:30N 57°53' E 011°14'816.2
2017-Apr-28 23:00N 57°46' E 011°19'816.5
2017-Apr-28 22:31N 57°38' E 011°24'816.2
2017-Apr-28 22:00N 57°30' E 011°30'816.4
2017-Apr-28 21:30N 57°22' E 011°33'816.2
2017-Apr-28 21:00N 57°14' E 011°36'816.3
2017-Apr-28 20:29N 57°07' E 011°41'5815.7
2017-Apr-28 16:47N 56°14' E 012°26'517.6
2017-Apr-28 16:31N 56°09' E 012°30'917.8
2017-Apr-28 16:01N 56°02' E 012°40'817.0
2017-Apr-28 15:30N 55°54' E 012°44'816.1
2017-Apr-28 15:00N 55°46' E 012°42'5 5.2
2017-Apr-28 13:58N 55°42' E 012°36'0 0.0
2017-Apr-28 13:28N 55°42' E 012°36'0 0.0
2017-Apr-28 12:58N 55°42' E 012°36'0 0.0
2017-Apr-28 12:28N 55°42' E 012°36'0 0.0
2017-Apr-28 11:58N 55°42' E 012°36'0 0.0
2017-Apr-28 11:28N 55°42' E 012°36'0 0.0
2017-Apr-28 10:58N 55°42' E 012°36'0 0.0
2017-Apr-28 10:28N 55°42' E 012°36'0 0.0
2017-Apr-28 09:58N 55°42' E 012°36'0 0.0
2017-Apr-28 09:28N 55°42' E 012°36'0 0.0
2017-Apr-28 08:58N 55°42' E 012°36'0 0.0
2017-Apr-28 08:28N 55°42' E 012°36'0 0.0
2017-Apr-28 07:58N 55°42' E 012°36'1 2.5
2017-Apr-28 07:31N 55°43' E 012°38'714.5
2017-Apr-28 07:01N 55°50' E 012°42'815.1
2017-Apr-28 06:31N 55°57' E 012°40'714.8
2017-Apr-28 06:01N 56°04' E 012°37'714.9
2017-Apr-28 05:31N 56°09' E 012°27'915.7
2017-Apr-28 04:58N 56°16' E 012°18'5416.7
2017-Apr-28 01:43N 57°06' E 011°38'316.6
2017-Apr-28 01:30N 57°09' E 011°35'816.5
2017-Apr-28 01:00N 57°17' E 011°29'816.6
2017-Apr-28 00:31N 57°25' E 011°25'916.4
2017-Apr-27 23:59N 57°33' E 011°20'816.6
2017-Apr-27 23:30N 57°40' E 011°14'916.7
2017-Apr-27 23:00N 57°48' E 011°07'816.4
2017-Apr-27 22:30N 57°55' E 011°02'816.1
2017-Apr-27 22:00N 58°03' E 010°57'816.1
2017-Apr-27 21:28N 58°11' E 010°51'816.0
2017-Apr-27 21:00N 58°18' E 010°47'816.2
2017-Apr-27 20:29N 58°26' E 010°41'816.1
2017-Apr-27 20:01N 58°33' E 010°38'815.8
2017-Apr-27 19:31N 58°41' E 010°36'815.6
2017-Apr-27 19:00N 58°49' E 010°35'816.3
2017-Apr-27 18:31N 58°57' E 010°36'917.2
2017-Apr-27 18:01N 59°06' E 010°38'917.1
2017-Apr-27 17:31N 59°14' E 010°37'917.6
2017-Apr-27 17:01N 59°23' E 010°34'917.5
2017-Apr-27 16:31N 59°32' E 010°35'816.5
2017-Apr-27 16:01N 59°40' E 010°37'815.4
2017-Apr-27 15:31N 59°47' E 010°34'815.4
2017-Apr-27 15:00N 59°54' E 010°42'1 2.6
2017-Apr-27 14:30N 59°54' E 010°45'0 0.0
2017-Apr-27 14:00N 59°54' E 010°45'0 0.0
2017-Apr-27 13:30N 59°54' E 010°45'0 0.0
2017-Apr-27 13:00N 59°54' E 010°45'0 0.0
2017-Apr-27 12:30N 59°54' E 010°45'0 0.0
2017-Apr-27 12:00N 59°54' E 010°45'0 0.0
2017-Apr-27 11:30N 59°54' E 010°45'0 0.0
2017-Apr-27 11:00N 59°54' E 010°45'0 0.0
2017-Apr-27 10:30N 59°54' E 010°45'0 0.0
2017-Apr-27 10:00N 59°54' E 010°45'0 0.0
2017-Apr-27 09:30N 59°54' E 010°45'0 0.0
2017-Apr-27 09:00N 59°54' E 010°45'0 0.0
2017-Apr-27 08:30N 59°54' E 010°45'0 0.0
2017-Apr-27 08:00N 59°54' E 010°45'0 0.5
2017-Apr-27 07:30N 59°54' E 010°44'714.5
2017-Apr-27 07:00N 59°49' E 010°35'815.4
2017-Apr-27 06:30N 59°41' E 010°36'714.6
2017-Apr-27 06:00N 59°34' E 010°38'815.3
2017-Apr-27 05:30N 59°26' E 010°34'714.9
2017-Apr-27 05:00N 59°19' E 010°36'815.1
2017-Apr-27 04:30N 59°12' E 010°39'714.9
2017-Apr-27 04:01N 59°04' E 010°41'815.4
2017-Apr-27 03:30N 58°57' E 010°43'816.0
2017-Apr-27 03:00N 58°49' E 010°44'816.2
2017-Apr-27 02:30N 58°41' E 010°47'816.4
2017-Apr-27 02:00N 58°33' E 010°52'816.2
2017-Apr-27 01:30N 58°25' E 010°56'816.3
2017-Apr-27 01:01N 58°17' E 010°58'816.7
2017-Apr-27 00:30N 58°09' E 011°02'917.3
2017-Apr-26 23:58N 58°00' E 011°08'817.1
2017-Apr-26 23:30N 57°52' E 011°12'817.2
2017-Apr-26 23:01N 57°45' E 011°17'917.0
2017-Apr-26 22:30N 57°36' E 011°22'817.0
2017-Apr-26 22:01N 57°28' E 011°27'816.9
2017-Apr-26 21:31N 57°20' E 011°33'816.5
2017-Apr-26 21:00N 57°13' E 011°38'916.8
2017-Apr-26 20:29N 57°04' E 011°43'5616.3
2017-Apr-26 17:04N 56°14' E 012°26'116.2
2017-Apr-26 17:00N 56°13' E 012°26'816.3
2017-Apr-26 16:30N 56°06' E 012°35'816.5
2017-Apr-26 16:00N 55°59' E 012°42'815.9
2017-Apr-26 15:30N 55°51' E 012°45'815.2
2017-Apr-26 15:00N 55°44' E 012°40'3 5.5
2017-Apr-26 14:29N 55°42' E 012°36'0 0.0
2017-Apr-26 13:29N 55°42' E 012°36'0 0.0
2017-Apr-26 12:59N 55°42' E 012°36'0 0.0
2017-Apr-26 12:29N 55°42' E 012°36'0 0.0
2017-Apr-26 11:59N 55°42' E 012°36'0 0.0
2017-Apr-26 11:29N 55°42' E 012°36'0 0.0
2017-Apr-26 10:59N 55°42' E 012°36'0 0.0
2017-Apr-26 10:29N 55°42' E 012°36'0 0.0
2017-Apr-26 09:59N 55°42' E 012°36'0 0.0
2017-Apr-26 09:29N 55°42' E 012°36'0 0.0
2017-Apr-26 08:59N 55°42' E 012°36'0 0.0
2017-Apr-26 08:29N 55°42' E 012°36'0 0.0
2017-Apr-26 07:59N 55°42' E 012°36'0 0.7
2017-Apr-26 07:31N 55°42' E 012°36'611.5
2017-Apr-26 07:01N 55°47' E 012°42'714.7
2017-Apr-26 06:31N 55°54' E 012°39'815.3
2017-Apr-26 06:01N 56°02' E 012°39'815.5
2017-Apr-26 05:30N 56°08' E 012°30'815.6
2017-Apr-26 05:01N 56°15' E 012°25'6316.2
2017-Apr-26 01:09N 57°15' E 011°51'216.2
2017-Apr-26 01:00N 57°17' E 011°49'816.2
2017-Apr-26 00:30N 57°24' E 011°41'816.4
2017-Apr-26 00:00N 57°30' E 011°32'816.6
2017-Apr-25 23:30N 57°36' E 011°20'816.3
2017-Apr-25 23:01N 57°42' E 011°11'917.5
2017-Apr-25 22:28N 57°51' E 011°06'818.0
2017-Apr-25 22:00N 57°59' E 011°01'917.9
2017-Apr-25 21:30N 58°08' E 010°55'917.8
2017-Apr-25 21:00N 58°16' E 010°48'917.5
2017-Apr-25 20:28N 58°25' E 010°42'817.3
2017-Apr-25 20:01N 58°32' E 010°37'917.3
2017-Apr-25 19:30N 58°41' E 010°36'917.7
2017-Apr-25 19:01N 58°50' E 010°35'918.5
2017-Apr-25 18:31N 58°59' E 010°37'1019.2
2017-Apr-25 18:01N 59°08' E 010°38'1019.7
2017-Apr-25 17:31N 59°18' E 010°36'918.8
2017-Apr-25 17:01N 59°27' E 010°33'917.5
2017-Apr-25 16:31N 59°36' E 010°38'713.8
2017-Apr-25 16:00N 59°43' E 010°35'713.6
2017-Apr-25 15:30N 59°49' E 010°34'713.0
2017-Apr-25 15:00N 59°54' E 010°43'1 1.5
2017-Apr-25 14:30N 59°54' E 010°45'0 0.0
2017-Apr-25 13:29N 59°54' E 010°45'0 0.0
2017-Apr-25 12:59N 59°54' E 010°45'0 0.0
2017-Apr-25 12:29N 59°54' E 010°45'0 0.0
2017-Apr-25 11:59N 59°54' E 010°45'0 0.0
2017-Apr-25 11:29N 59°54' E 010°45'0 0.0
2017-Apr-25 10:59N 59°54' E 010°45'0 0.0
2017-Apr-25 10:29N 59°54' E 010°45'0 0.0
2017-Apr-25 09:59N 59°54' E 010°45'0 0.0
2017-Apr-25 09:29N 59°54' E 010°45'0 0.0
2017-Apr-25 08:59N 59°54' E 010°45'0 0.0
2017-Apr-25 08:29N 59°54' E 010°45'1 2.5
2017-Apr-25 08:00N 59°54' E 010°42'715.1
2017-Apr-25 07:31N 59°48' E 010°35'714.5
2017-Apr-25 07:00N 59°40' E 010°37'714.9
2017-Apr-25 06:30N 59°33' E 010°38'816.2
2017-Apr-25 06:00N 59°25' E 010°34'816.1
2017-Apr-25 05:30N 59°17' E 010°37'816.1
2017-Apr-25 05:00N 59°09' E 010°39'816.4
2017-Apr-25 04:30N 59°01' E 010°41'816.7
2017-Apr-25 04:00N 58°53' E 010°43'816.8
2017-Apr-25 03:31N 58°45' E 010°45'816.9
2017-Apr-25 03:01N 58°36' E 010°50'816.9
2017-Apr-25 02:30N 58°29' E 010°56'816.5
2017-Apr-25 02:00N 58°21' E 010°60'916.9
2017-Apr-25 01:28N 58°12' E 011°04'816.9
2017-Apr-25 01:01N 58°04' E 011°04'917.1
2017-Apr-25 00:30N 57°55' E 011°03'816.5
2017-Apr-25 00:00N 57°47' E 011°02'714.7
2017-Apr-24 23:30N 57°40' E 011°06'815.3
2017-Apr-24 23:00N 57°35' E 011°15'815.7
2017-Apr-24 22:31N 57°29' E 011°26'815.7
2017-Apr-24 22:00N 57°22' E 011°31'916.5
2017-Apr-24 21:29N 57°14' E 011°35'1016.0
2017-Apr-24 20:53N 57°05' E 011°42'5515.4
2017-Apr-24 17:20N 56°15' E 012°21'514.6
2017-Apr-24 17:00N 56°11' E 012°27'815.6
2017-Apr-24 16:30N 56°05' E 012°36'816.0
2017-Apr-24 16:00N 55°58' E 012°42'816.0
2017-Apr-24 15:30N 55°50' E 012°44'714.0
2017-Apr-24 15:01N 55°44' E 012°39'2 4.7
2017-Apr-24 14:29N 55°42' E 012°36'0 0.0
2017-Apr-24 13:29N 55°42' E 012°36'0 0.0
2017-Apr-24 12:59N 55°42' E 012°36'0 0.0
2017-Apr-24 12:29N 55°42' E 012°36'0 0.0
2017-Apr-24 11:59N 55°42' E 012°36'0 0.0
2017-Apr-24 11:29N 55°42' E 012°36'0 0.0
2017-Apr-24 10:59N 55°42' E 012°36'0 0.0
2017-Apr-24 10:29N 55°42' E 012°36'0 0.0
2017-Apr-24 09:59N 55°42' E 012°36'0 0.0
2017-Apr-24 09:29N 55°42' E 012°36'0 0.0
2017-Apr-24 08:59N 55°42' E 012°36'0 0.0
2017-Apr-24 08:29N 55°42' E 012°36'0 0.0
2017-Apr-24 07:59N 55°42' E 012°36'0 0.8
2017-Apr-24 07:31N 55°42' E 012°36'713.9
2017-Apr-24 07:00N 55°49' E 012°42'815.1
2017-Apr-24 06:30N 55°56' E 012°39'815.2
2017-Apr-24 06:00N 56°03' E 012°38'714.8
2017-Apr-24 05:30N 56°09' E 012°29'815.0
2017-Apr-24 05:00N 56°16' E 012°25'5915.3
2017-Apr-24 01:07N 57°13' E 011°53'216.4
2017-Apr-24 00:58N 57°15' E 011°51'816.2
2017-Apr-24 00:30N 57°21' E 011°43'816.4
2017-Apr-24 00:00N 57°29' E 011°36'816.7
2017-Apr-23 23:30N 57°36' E 011°30'816.4
2017-Apr-23 23:00N 57°44' E 011°26'916.5
2017-Apr-23 22:26N 57°53' E 011°19'716.4
2017-Apr-23 21:59N 57°60' E 011°14'815.9
2017-Apr-23 21:30N 58°07' E 011°09'815.8
2017-Apr-23 21:00N 58°14' E 011°04'816.1
2017-Apr-23 20:30N 58°22' E 010°59'816.4
2017-Apr-23 20:00N 58°30' E 010°54'816.3
2017-Apr-23 19:30N 58°38' E 010°50'816.4
2017-Apr-23 19:00N 58°46' E 010°48'816.7
2017-Apr-23 18:30N 58°54' E 010°44'816.9
2017-Apr-23 18:00N 59°02' E 010°41'816.7
2017-Apr-23 17:30N 59°10' E 010°38'816.6
2017-Apr-23 17:00N 59°19' E 010°35'816.6
2017-Apr-23 16:30N 59°27' E 010°33'816.0
2017-Apr-23 16:00N 59°34' E 010°38'714.0
2017-Apr-23 15:30N 59°41' E 010°36'815.8
2017-Apr-23 15:00N 59°49' E 010°34'7 7.1
2017-Apr-23 13:59N 59°54' E 010°45'0 0.0
2017-Apr-23 13:29N 59°54' E 010°45'0 0.0
2017-Apr-23 12:59N 59°54' E 010°45'0 0.0
2017-Apr-23 12:29N 59°54' E 010°45'0 0.0
2017-Apr-23 11:59N 59°54' E 010°45'0 0.0
2017-Apr-23 11:29N 59°54' E 010°45'0 0.0
2017-Apr-23 10:59N 59°54' E 010°45'0 0.0
2017-Apr-23 10:29N 59°54' E 010°45'0 0.0
2017-Apr-23 09:59N 59°54' E 010°45'0 0.0
2017-Apr-23 09:29N 59°54' E 010°45'0 0.0
2017-Apr-23 08:59N 59°54' E 010°45'0 0.0
2017-Apr-23 08:29N 59°54' E 010°45'0 0.0
2017-Apr-23 07:59N 59°54' E 010°45'0 0.3
2017-Apr-23 07:30N 59°54' E 010°45'611.7
2017-Apr-23 07:00N 59°50' E 010°36'714.7
2017-Apr-23 06:30N 59°43' E 010°35'713.9
2017-Apr-23 06:01N 59°36' E 010°38'816.2
2017-Apr-23 05:31N 59°28' E 010°35'815.7
2017-Apr-23 05:01N 59°20' E 010°36'815.5
2017-Apr-23 04:31N 59°13' E 010°38'815.7
2017-Apr-23 04:01N 59°05' E 010°39'816.2
2017-Apr-23 03:31N 58°57' E 010°38'816.5
2017-Apr-23 03:01N 58°49' E 010°39'816.9
2017-Apr-23 02:31N 58°40' E 010°40'917.5
2017-Apr-23 02:01N 58°31' E 010°41'917.7
2017-Apr-23 01:30N 58°23' E 010°43'917.7
2017-Apr-23 01:00N 58°14' E 010°49'917.4
2017-Apr-23 00:31N 58°06' E 010°55'917.4
2017-Apr-23 00:00N 57°58' E 011°00'816.9
2017-Apr-22 23:30N 57°50' E 011°06'816.8
2017-Apr-22 23:00N 57°42' E 011°11'816.6
2017-Apr-22 22:30N 57°35' E 011°19'816.8
2017-Apr-22 22:00N 57°28' E 011°27'916.9
2017-Apr-22 21:30N 57°20' E 011°34'817.1
2017-Apr-22 21:01N 57°12' E 011°38'1017.5
2017-Apr-22 20:25N 57°02' E 011°44'1117.8
2017-Apr-22 19:50N 56°52' E 011°49'3916.5
2017-Apr-22 17:27N 56°16' E 012°18'715.8
2017-Apr-22 17:01N 56°11' E 012°26'815.6
2017-Apr-22 16:31N 56°05' E 012°36'713.8
2017-Apr-22 16:01N 55°59' E 012°42'714.7
2017-Apr-22 15:31N 55°52' E 012°45'713.9
2017-Apr-22 15:00N 55°45' E 012°41'4 8.4
2017-Apr-22 14:30N 55°42' E 012°36'0 0.0
2017-Apr-22 13:30N 55°42' E 012°36'0 0.0
2017-Apr-22 13:00N 55°42' E 012°36'0 0.0
2017-Apr-22 12:30N 55°42' E 012°36'0 0.0
2017-Apr-22 12:00N 55°42' E 012°36'0 0.0
2017-Apr-22 11:30N 55°42' E 012°36'0 0.0
2017-Apr-22 11:00N 55°42' E 012°36'0 0.0
2017-Apr-22 10:30N 55°42' E 012°36'0 0.0
2017-Apr-22 10:00N 55°42' E 012°36'0 0.0
2017-Apr-22 09:30N 55°42' E 012°36'0 0.0
2017-Apr-22 09:00N 55°42' E 012°36'0 0.0
2017-Apr-22 08:30N 55°42' E 012°36'0 0.0
2017-Apr-22 08:00N 55°42' E 012°36'0 0.7
2017-Apr-22 07:31N 55°42' E 012°36'611.5
2017-Apr-22 07:00N 55°47' E 012°42'815.8
2017-Apr-22 06:30N 55°55' E 012°39'816.8
2017-Apr-22 06:00N 56°03' E 012°38'918.3
2017-Apr-22 05:30N 56°10' E 012°27'6717.2
2017-Apr-22 01:37N 57°14' E 011°52'217.6
2017-Apr-22 01:30N 57°16' E 011°50'917.6
2017-Apr-22 01:00N 57°23' E 011°41'917.4
2017-Apr-22 00:31N 57°29' E 011°30'917.1
2017-Apr-22 00:00N 57°35' E 011°19'917.4
2017-Apr-21 23:30N 57°44' E 011°13'817.3
2017-Apr-21 23:01N 57°51' E 011°07'816.7
2017-Apr-21 22:30N 57°59' E 011°01'816.2
2017-Apr-21 22:00N 58°07' E 010°56'816.3
2017-Apr-21 21:30N 58°15' E 010°51'816.1
2017-Apr-21 21:00N 58°22' E 010°45'816.3
2017-Apr-21 20:30N 58°30' E 010°40'815.9
2017-Apr-21 20:00N 58°37' E 010°36'816.1
2017-Apr-21 19:30N 58°45' E 010°35'816.7
2017-Apr-21 19:00N 58°54' E 010°35'817.0
2017-Apr-21 18:30N 59°02' E 010°37'815.1
2017-Apr-21 18:00N 59°10' E 010°38'714.9
2017-Apr-21 17:30N 59°17' E 010°36'715.0
2017-Apr-21 17:00N 59°25' E 010°34'815.3
2017-Apr-21 16:30N 59°32' E 010°36'815.2
2017-Apr-21 16:00N 59°40' E 010°37'714.4
2017-Apr-21 15:31N 59°47' E 010°34'713.6
2017-Apr-21 15:00N 59°53' E 010°39'3 6.0
2017-Apr-21 14:30N 59°54' E 010°45'0 0.0
2017-Apr-21 13:30N 59°54' E 010°45'0 0.0
2017-Apr-21 13:00N 59°54' E 010°45'0 0.0
2017-Apr-21 12:30N 59°54' E 010°45'0 0.0
2017-Apr-21 12:00N 59°54' E 010°45'0 0.0
2017-Apr-21 11:30N 59°54' E 010°45'0 0.0
2017-Apr-21 11:00N 59°54' E 010°45'0 0.0
2017-Apr-21 10:30N 59°54' E 010°45'0 0.0
2017-Apr-21 10:00N 59°54' E 010°45'0 0.0
2017-Apr-21 09:30N 59°54' E 010°45'0 0.0
2017-Apr-21 09:00N 59°54' E 010°45'0 0.0
2017-Apr-21 08:30N 59°54' E 010°45'0 0.0
2017-Apr-21 07:57N 59°54' E 010°45'0 0.4
2017-Apr-21 07:30N 59°54' E 010°45'511.0
2017-Apr-21 07:00N 59°50' E 010°36'714.1
2017-Apr-21 06:30N 59°43' E 010°35'612.9
2017-Apr-21 06:00N 59°37' E 010°38'815.3
2017-Apr-21 05:30N 59°30' E 010°35'816.0
2017-Apr-21 05:00N 59°22' E 010°35'816.6
2017-Apr-21 04:31N 59°14' E 010°38'816.3
2017-Apr-21 04:01N 59°05' E 010°38'816.1
2017-Apr-21 03:30N 58°57' E 010°36'816.6
2017-Apr-21 03:00N 58°49' E 010°35'816.5
2017-Apr-21 02:30N 58°41' E 010°36'816.5
2017-Apr-21 02:00N 58°32' E 010°37'817.1
2017-Apr-21 01:30N 58°24' E 010°42'816.9
2017-Apr-21 01:00N 58°16' E 010°47'816.7
2017-Apr-21 00:30N 58°08' E 010°51'816.1
2017-Apr-20 23:59N 58°01' E 010°59'815.9
2017-Apr-20 23:30N 57°54' E 011°04'815.5
2017-Apr-20 23:00N 57°47' E 011°09'816.0
2017-Apr-20 22:30N 57°39' E 011°14'816.0
2017-Apr-20 22:01N 57°32' E 011°22'816.4
2017-Apr-20 21:30N 57°25' E 011°29'817.0
2017-Apr-20 21:00N 57°17' E 011°35'1017.5
2017-Apr-20 20:27N 57°08' E 011°40'817.0
2017-Apr-20 20:00N 57°01' E 011°46'2716.4
2017-Apr-20 18:22N 56°37' E 012°09'2516.8
2017-Apr-20 16:51N 56°14' E 012°26'617.4
2017-Apr-20 16:30N 56°08' E 012°31'816.8
2017-Apr-20 16:01N 56°02' E 012°40'816.4
2017-Apr-20 15:30N 55°54' E 012°44'714.9
2017-Apr-20 15:00N 55°46' E 012°42'611.1
2017-Apr-20 14:31N 55°42' E 012°36'  

Dump ship's entire track history